Time;durP1;ratioP1;P1;durP2;ratioP2;P2;SDS_P1;SDS_P2;PMS_P1;PMS_P2;Temp;Humidity;BMP_temperature;BMP_pressure;BME280_temperature;BME280_humidity;BME280_pressure;Samples;Min_cycle;Max_cycle;Signal;HPM_P1;HPM_P2
2023/09/01 00:00:13;;;;;;;8.30;6.47;;;;;;;;;;2073188;28;20037;-95
2023/09/01 00:01:13;;;;;;;9.13;7.20;;;;;;;;;;2073470;28;20407;-94
2023/09/01 00:02:14;;;;;;;9.30;7.00;;;;;;;;;;2065421;28;20528;-93
2023/09/01 00:03:14;;;;;;;9.18;6.95;;;;;;;;;;2056976;28;20380;-94
2023/09/01 00:04:15;;;;;;;8.77;6.70;;;;;;;;;;2073182;28;20025;-95
2023/09/01 00:05:15;;;;;;;8.90;7.25;;;;;;;;;;2081552;28;20035;-94
2023/09/01 00:06:15;;;;;;;8.65;7.10;;;;;;;;;;2065188;28;20022;-93
2023/09/01 00:07:16;;;;;;;8.07;6.30;;;;;;;;;;2065209;28;20028;-94
2023/09/01 00:08:16;;;;;;;9.82;6.40;;;;;;;;;;2073280;28;20129;-94
2023/09/01 00:09:17;;;;;;;7.95;6.60;;;;;;;;;;2073254;28;20026;-95
2023/09/01 00:10:17;;;;;;;8.02;6.30;;;;;;;;;;2073357;28;20423;-94
2023/09/01 00:11:19;;;;;;;10.02;6.88;;;;;;;;;;2073190;28;20523;-93
2023/09/01 00:12:19;;;;;;;11.00;6.72;;;;;;;;;;2065332;28;20062;-94
2023/09/01 00:13:20;;;;;;;10.40;6.88;;;;;;;;;;2065132;28;20385;-94
2023/09/01 00:14:20;;;;;;;10.43;6.78;;;;;;;;;;2065305;28;20538;-94
2023/09/01 00:15:21;;;;;;;8.43;6.70;;;;;;;;;;2080079;28;20025;-93
2023/09/01 00:16:21;;;;;;;11.40;6.57;;;;;;;;;;2083872;28;20034;-92
2023/09/01 00:17:22;;;;;;;9.15;6.28;;;;;;;;;;2067744;28;20121;-93
2023/09/01 00:18:22;;;;;;;11.00;6.75;;;;;;;;;;2065085;28;20057;-93
2023/09/01 00:19:23;;;;;;;9.73;6.70;;;;;;;;;;2065282;28;20430;-92
2023/09/01 00:20:23;;;;;;;7.97;6.85;;;;;;;;;;2073299;28;20030;-94
2023/09/01 00:21:24;;;;;;;9.68;6.72;;;;;;;;;;2081401;28;20541;-94
2023/09/01 00:22:24;;;;;;;8.85;6.32;;;;;;;;;;2073106;28;20033;-94
2023/09/01 00:23:25;;;;;;;10.02;7.05;;;;;;;;;;2065091;28;20118;-93
2023/09/01 00:24:25;;;;;;;9.57;7.15;;;;;;;;;;2065166;28;20109;-93
2023/09/01 00:25:26;;;;;;;8.10;7.15;;;;;;;;;;2057062;28;20033;-94
2023/09/01 00:26:26;;;;;;;11.38;6.82;;;;;;;;;;2073242;28;20111;-94
2023/09/01 00:27:27;;;;;;;9.55;7.20;;;;;;;;;;2073137;28;20045;-93
2023/09/01 00:28:27;;;;;;;9.88;7.00;;;;;;;;;;2065096;28;20084;-93
2023/09/01 00:29:27;;;;;;;10.25;6.85;;;;;;;;;;2073134;28;20595;-93
2023/09/01 00:30:29;;;;;;;9.18;7.10;;;;;;;;;;2081514;28;20112;-92
2023/09/01 00:31:29;;;;;;;7.43;6.47;;;;;;;;;;2073449;28;20525;-93
2023/09/01 00:32:30;;;;;;;10.05;7.53;;;;;;;;;;2065990;28;20065;-93
2023/09/01 00:33:30;;;;;;;9.68;7.03;;;;;;;;;;2074106;28;20042;-93
2023/09/01 00:34:31;;;;;;;8.32;6.25;;;;;;;;;;2074255;28;20049;-93
2023/09/01 00:35:31;;;;;;;7.65;6.53;;;;;;;;;;2065595;28;20404;-92
2023/09/01 00:36:32;;;;;;;8.73;6.55;;;;;;;;;;2066286;28;20049;-92
2023/09/01 00:37:32;;;;;;;8.80;6.80;;;;;;;;;;2064979;28;20467;-92
2023/09/01 00:38:33;;;;;;;8.68;6.55;;;;;;;;;;2065234;28;20034;-95
2023/09/01 00:39:33;;;;;;;9.05;7.22;;;;;;;;;;2064650;28;20042;-93
2023/09/01 00:40:33;;;;;;;9.65;7.03;;;;;;;;;;2072857;28;20483;-94
2023/09/01 00:41:34;;;;;;;10.30;6.93;;;;;;;;;;2073096;28;20170;-94
2023/09/01 00:42:35;;;;;;;8.40;6.88;;;;;;;;;;2064958;28;20074;-95
2023/09/01 00:43:35;;;;;;;8.70;6.60;;;;;;;;;;2072989;28;20139;-95
2023/09/01 00:44:36;;;;;;;9.00;6.57;;;;;;;;;;2073047;28;20065;-95
2023/09/01 00:45:37;;;;;;;8.35;6.75;;;;;;;;;;2064962;28;20461;-94
2023/09/01 00:46:39;;;;;;;9.40;6.55;;;;;;;;;;2056935;28;20042;-94
2023/09/01 00:47:39;;;;;;;9.38;7.20;;;;;;;;;;2073166;28;20038;-94
2023/09/01 00:48:40;;;;;;;9.82;7.18;;;;;;;;;;2081387;28;20041;-95
2023/09/01 00:49:41;;;;;;;9.45;6.53;;;;;;;;;;2064894;28;20053;-96
2023/09/01 00:50:46;;;;;;;10.30;7.00;;;;;;;;;;2056890;28;20047;-94
2023/09/01 00:51:47;;;;;;;10.50;7.18;;;;;;;;;;2065438;28;20142;-94
2023/09/01 00:52:47;;;;;;;8.00;6.80;;;;;;;;;;2064685;28;20081;-95
2023/09/01 00:53:48;;;;;;;9.68;6.22;;;;;;;;;;2073024;28;20041;-94
2023/09/01 00:54:49;;;;;;;7.88;6.40;;;;;;;;;;2073141;28;20037;-94
2023/09/01 00:55:51;;;;;;;8.38;6.50;;;;;;;;;;2064673;28;20053;-92
2023/09/01 00:56:54;;;;;;;10.10;6.05;;;;;;;;;;2064860;28;20042;-94
2023/09/01 00:57:54;;;;;;;6.95;5.68;;;;;;;;;;2073276;28;20132;-93
2023/09/01 00:58:55;;;;;;;8.25;5.63;;;;;;;;;;2072909;28;20053;-95
2023/09/01 00:59:55;;;;;;;8.32;5.28;;;;;;;;;;2064861;28;20046;-94
2023/09/01 01:00:58;;;;;;;6.57;5.63;;;;;;;;;;2081327;28;20050;-94
2023/09/01 01:01:59;;;;;;;8.77;5.82;;;;;;;;;;2073160;28;20069;-94
2023/09/01 01:03:05;;;;;;;8.35;5.70;;;;;;;;;;2072830;28;20547;-92
2023/09/01 01:04:07;;;;;;;6.88;5.97;;;;;;;;;;2066593;28;20054;-95
2023/09/01 01:05:14;;;;;;;7.90;6.00;;;;;;;;;;2065032;28;20523;-94
2023/09/01 01:06:29;;;;;;;8.73;5.80;;;;;;;;;;2065176;28;20064;-94
2023/09/01 01:07:49;;;;;;;7.53;5.75;;;;;;;;;;2074804;28;20042;-95
2023/09/01 01:09:03;;;;;;;8.25;6.00;;;;;;;;;;2070608;28;20049;-94
2023/09/01 01:10:17;;;;;;;7.57;6.40;;;;;;;;;;2074719;28;20052;-94
2023/09/01 01:11:31;;;;;;;6.82;5.85;;;;;;;;;;2064387;28;20221;-94
2023/09/01 01:12:49;;;;;;;9.45;6.38;;;;;;;;;;2074559;28;20060;-94
2023/09/01 01:13:59;;;;;;;7.82;6.35;;;;;;;;;;2070851;28;20101;-94
2023/09/01 01:15:09;;;;;;;9.77;5.30;;;;;;;;;;2074424;28;20077;-95
2023/09/01 01:16:10;;;;;;;7.18;5.45;;;;;;;;;;2080209;28;20029;-94
2023/09/01 01:17:12;;;;;;;6.88;5.88;;;;;;;;;;2072796;28;20038;-95
2023/09/01 01:18:15;;;;;;;8.23;5.60;;;;;;;;;;2064874;28;20046;-94
2023/09/01 01:19:36;;;;;;;8.50;6.05;;;;;;;;;;2073172;28;20573;-94
2023/09/01 01:21:06;;;;;;;7.40;6.20;;;;;;;;;;2070392;28;20038;-94
2023/09/01 01:22:07;;;;;;;7.70;6.50;;;;;;;;;;2064762;28;20038;-96
2023/09/01 01:23:10;;;;;;;9.93;6.43;;;;;;;;;;2064760;28;20050;-94
2023/09/01 01:24:10;;;;;;;7.60;6.80;;;;;;;;;;2064665;28;20041;-95
2023/09/01 01:25:12;;;;;;;8.23;6.13;;;;;;;;;;2064651;28;20417;-95
2023/09/01 01:26:16;;;;;;;9.57;6.70;;;;;;;;;;2080963;28;20111;-96
2023/09/01 01:27:18;;;;;;;7.93;6.40;;;;;;;;;;2080721;28;20129;-94
2023/09/01 01:28:19;;;;;;;8.10;6.45;;;;;;;;;;2064611;28;20049;-94
2023/09/01 01:29:20;;;;;;;6.88;5.95;;;;;;;;;;2064774;28;20064;-94
2023/09/01 01:30:20;;;;;;;7.65;6.05;;;;;;;;;;2064545;28;20492;-94
2023/09/01 01:31:21;;;;;;;9.07;6.63;;;;;;;;;;2073405;28;20044;-93
2023/09/01 01:32:21;;;;;;;7.93;6.97;;;;;;;;;;2085744;28;20072;-92
2023/09/01 01:33:41;;;;;;;7.10;6.40;;;;;;;;;;2067718;28;20062;-92
2023/09/01 01:34:59;;;;;;;8.38;6.63;;;;;;;;;;2081096;28;20122;-92
2023/09/01 01:37:17;;;;;;;9.63;6.75;;;;;;;;;;2061541;28;20039;-93
2023/09/01 01:38:23;;;;;;;9.88;6.95;;;;;;;;;;2073680;28;20029;-94
2023/09/01 01:39:31;;;;;;;8.45;6.72;;;;;;;;;;2073279;28;20118;-95
2023/09/01 01:40:33;;;;;;;6.85;6.20;;;;;;;;;;2073589;28;20478;-94
2023/09/01 01:42:01;;;;;;;8.07;7.25;;;;;;;;;;2080980;28;20084;-95
2023/09/01 01:43:04;;;;;;;9.55;6.95;;;;;;;;;;2069002;28;20057;-95
2023/09/01 01:44:06;;;;;;;7.65;6.68;;;;;;;;;;2072311;28;20056;-94
2023/09/01 01:45:08;;;;;;;8.48;7.05;;;;;;;;;;2072723;28;20038;-95
2023/09/01 01:46:08;;;;;;;6.90;6.07;;;;;;;;;;2064645;28;20460;-94
2023/09/01 01:47:11;;;;;;;6.80;6.10;;;;;;;;;;2080787;28;20065;-94
2023/09/01 01:48:11;;;;;;;6.93;6.10;;;;;;;;;;2072717;28;20034;-94
2023/09/01 01:49:11;;;;;;;7.13;5.80;;;;;;;;;;2064449;28;20113;-95
2023/09/01 01:50:12;;;;;;;8.07;6.25;;;;;;;;;;2089234;28;20030;-95
2023/09/01 01:51:12;;;;;;;8.18;6.20;;;;;;;;;;2083276;28;20044;-95
2023/09/01 01:52:13;;;;;;;9.13;5.70;;;;;;;;;;2065075;28;20047;-94
2023/09/01 01:53:13;;;;;;;7.57;5.75;;;;;;;;;;2064564;28;20571;-94
2023/09/01 01:54:13;;;;;;;7.20;5.72;;;;;;;;;;2072753;28;20037;-95
2023/09/01 01:55:14;;;;;;;6.70;5.18;;;;;;;;;;2072580;28;20476;-94
2023/09/01 01:56:15;;;;;;;7.95;5.50;;;;;;;;;;2072461;28;20575;-93
2023/09/01 01:57:15;;;;;;;7.65;6.25;;;;;;;;;;2072732;28;20120;-95
2023/09/01 01:58:16;;;;;;;7.53;5.60;;;;;;;;;;2072696;28;20049;-94
2023/09/01 01:59:16;;;;;;;7.43;5.72;;;;;;;;;;2071739;28;20254;-91
2023/09/01 02:00:17;;;;;;;8.25;5.68;;;;;;;;;;2055024;28;20038;-90
2023/09/01 02:01:17;;;;;;;6.82;5.95;;;;;;;;;;2063138;28;20492;-91
2023/09/01 02:02:17;;;;;;;8.77;6.13;;;;;;;;;;2055193;28;20504;-88
2023/09/01 02:03:18;;;;;;;8.02;5.90;;;;;;;;;;2063217;28;20101;-90
2023/09/01 02:04:18;;;;;;;6.80;5.85;;;;;;;;;;2079422;28;20056;-90
2023/09/01 02:05:19;;;;;;;7.53;5.63;;;;;;;;;;2071701;28;20044;-90
2023/09/01 02:06:19;;;;;;;7.43;5.75;;;;;;;;;;2063213;28;20046;-90
2023/09/01 02:07:20;;;;;;;10.13;6.50;;;;;;;;;;2063384;28;20046;-89
2023/09/01 02:08:20;;;;;;;6.82;6.00;;;;;;;;;;2063013;28;20037;-91
2023/09/01 02:09:20;;;;;;;8.43;5.80;;;;;;;;;;2063091;28;20583;-91
2023/09/01 02:10:21;;;;;;;7.55;5.97;;;;;;;;;;2063029;28;20038;-90
2023/09/01 02:11:21;;;;;;;8.13;6.32;;;;;;;;;;2072150;28;20096;-90
2023/09/01 02:12:21;;;;;;;9.18;5.95;;;;;;;;;;2063035;28;20365;-90
2023/09/01 02:13:22;;;;;;;7.85;6.18;;;;;;;;;;2063164;28;20046;-88
2023/09/01 02:14:23;;;;;;;7.15;5.82;;;;;;;;;;2071451;28;20168;-90
2023/09/01 02:15:23;;;;;;;7.57;6.50;;;;;;;;;;2079609;28;20048;-91
2023/09/01 02:16:24;;;;;;;10.95;6.22;;;;;;;;;;2063238;28;20038;-90
2023/09/01 02:17:24;;;;;;;7.45;6.03;;;;;;;;;;2063573;28;20062;-90
2023/09/01 02:18:25;;;;;;;7.82;5.85;;;;;;;;;;2063028;28;20124;-91
2023/09/01 02:19:27;;;;;;;7.40;5.80;;;;;;;;;;2062987;28;20046;-90
2023/09/01 02:20:30;;;;;;;8.52;6.90;;;;;;;;;;2063241;28;20089;-91
2023/09/01 02:21:30;;;;;;;8.18;5.15;;;;;;;;;;2071413;28;20046;-91
2023/09/01 02:22:31;;;;;;;7.70;6.35;;;;;;;;;;2071270;28;20038;-90
2023/09/01 02:23:31;;;;;;;7.28;5.88;;;;;;;;;;2063061;28;20042;-90
2023/09/01 02:24:32;;;;;;;8.60;6.13;;;;;;;;;;2071456;28;20897;-90
2023/09/01 02:25:37;;;;;;;7.60;6.05;;;;;;;;;;2079502;28;20116;-90
2023/09/01 02:26:37;;;;;;;9.35;5.95;;;;;;;;;;2072321;28;20038;-90
2023/09/01 02:27:41;;;;;;;7.32;5.88;;;;;;;;;;2063501;28;20511;-90
2023/09/01 02:28:42;;;;;;;7.00;5.72;;;;;;;;;;2063660;28;20042;-90
2023/09/01 02:29:43;;;;;;;6.63;5.65;;;;;;;;;;2079624;28;20140;-90
2023/09/01 02:30:43;;;;;;;9.93;5.60;;;;;;;;;;2071177;28;20094;-91
2023/09/01 02:31:44;;;;;;;6.35;5.55;;;;;;;;;;2062938;28;20047;-90
2023/09/01 02:32:44;;;;;;;9.90;5.13;;;;;;;;;;2063137;28;20121;-91
2023/09/01 02:33:45;;;;;;;6.28;4.72;;;;;;;;;;2071099;28;20042;-91
2023/09/01 02:34:45;;;;;;;7.85;5.03;;;;;;;;;;2071383;28;20415;-90
2023/09/01 02:35:48;;;;;;;6.25;5.65;;;;;;;;;;2071409;28;20045;-90
2023/09/01 02:36:49;;;;;;;5.95;5.18;;;;;;;;;;2064204;28;20452;-90
2023/09/01 02:37:49;;;;;;;7.70;5.45;;;;;;;;;;2069228;28;20161;-88
2023/09/01 02:38:51;;;;;;;8.43;5.53;;;;;;;;;;2076829;28;20049;-90
2023/09/01 02:39:51;;;;;;;7.07;5.10;;;;;;;;;;2079363;28;20041;-90
2023/09/01 02:40:52;;;;;;;7.85;5.55;;;;;;;;;;2072149;28;20042;-90
2023/09/01 02:41:53;;;;;;;5.50;4.82;;;;;;;;;;2071863;28;20076;-90
2023/09/01 02:42:53;;;;;;;9.00;5.00;;;;;;;;;;2079265;28;20045;-90
2023/09/01 02:43:54;;;;;;;6.35;4.95;;;;;;;;;;2071385;28;20057;-91
2023/09/01 02:44:54;;;;;;;6.85;5.10;;;;;;;;;;2063341;28;20100;-90
2023/09/01 02:45:55;;;;;;;7.32;4.90;;;;;;;;;;2062913;28;20049;-90
2023/09/01 02:47:10;;;;;;;5.53;4.88;;;;;;;;;;1883626;28;10000654;-91
2023/09/01 02:48:11;;;;;;;6.40;4.95;;;;;;;;;;2071103;28;20304;-91
2023/09/01 02:49:11;;;;;;;6.95;5.10;;;;;;;;;;2071250;28;20546;-90
2023/09/01 02:50:11;;;;;;;5.53;4.70;;;;;;;;;;2062796;28;20034;-90
2023/09/01 02:51:12;;;;;;;6.25;4.97;;;;;;;;;;2071027;28;20042;-90
2023/09/01 02:52:12;;;;;;;6.57;4.72;;;;;;;;;;2079418;28;20136;-91
2023/09/01 02:53:13;;;;;;;6.43;4.90;;;;;;;;;;2062687;28;20515;-90
2023/09/01 02:54:13;;;;;;;7.97;4.80;;;;;;;;;;2062994;28;20101;-90
2023/09/01 02:55:17;;;;;;;5.70;4.65;;;;;;;;;;2071453;28;20041;-90
2023/09/01 02:56:18;;;;;;;5.22;4.30;;;;;;;;;;2080456;28;20045;-90
2023/09/01 02:57:19;;;;;;;5.20;4.18;;;;;;;;;;2074404;28;20053;-90
2023/09/01 02:58:19;;;;;;;7.65;4.88;;;;;;;;;;2073116;28;20419;-91
2023/09/01 02:59:20;;;;;;;6.53;5.00;;;;;;;;;;2080866;28;20077;-90
2023/09/01 03:00:22;;;;;;;8.60;4.97;;;;;;;;;;2072938;28;20034;-89
2023/09/01 03:01:23;;;;;;;7.80;4.55;;;;;;;;;;2064843;28;20104;-90
2023/09/01 03:02:24;;;;;;;6.88;4.95;;;;;;;;;;2073418;28;20084;-90
2023/09/01 03:03:24;;;;;;;6.18;4.88;;;;;;;;;;2073424;28;20072;-90
2023/09/01 03:04:25;;;;;;;6.22;4.60;;;;;;;;;;2072939;28;20041;-91
2023/09/01 03:05:25;;;;;;;8.18;5.03;;;;;;;;;;2072490;28;20103;-90
2023/09/01 03:06:26;;;;;;;6.57;5.00;;;;;;;;;;2072726;28;20443;-90
2023/09/01 03:07:27;;;;;;;7.50;5.03;;;;;;;;;;2064489;28;20077;-90
2023/09/01 03:08:27;;;;;;;6.38;4.95;;;;;;;;;;2064526;28;20046;-90
2023/09/01 03:09:28;;;;;;;9.20;4.40;;;;;;;;;;2080927;28;20608;-91
2023/09/01 03:10:28;;;;;;;5.97;4.90;;;;;;;;;;2080885;28;20053;-90
2023/09/01 03:11:29;;;;;;;7.97;5.30;;;;;;;;;;2080426;28;20232;-89
2023/09/01 03:12:29;;;;;;;6.50;4.95;;;;;;;;;;2072380;28;20418;-90
2023/09/01 03:13:30;;;;;;;5.95;4.80;;;;;;;;;;2064446;28;20137;-91
2023/09/01 03:14:31;;;;;;;6.55;4.80;;;;;;;;;;2064225;28;20490;-89
2023/09/01 03:15:31;;;;;;;7.93;4.95;;;;;;;;;;2064323;28;20089;-91
2023/09/01 03:16:31;;;;;;;6.53;4.78;;;;;;;;;;2064404;28;20439;-91
2023/09/01 03:17:32;;;;;;;7.65;4.82;;;;;;;;;;2071966;28;20116;-91
2023/09/01 03:18:33;;;;;;;5.82;4.63;;;;;;;;;;2080547;28;20041;-91
2023/09/01 03:19:34;;;;;;;6.55;5.25;;;;;;;;;;2074055;28;20045;-94
2023/09/01 03:20:34;;;;;;;10.35;5.70;;;;;;;;;;2073829;28;20070;-94
2023/09/01 03:21:35;;;;;;;6.00;5.07;;;;;;;;;;2079884;28;20060;-92
2023/09/01 03:22:42;;;;;;;7.20;4.78;;;;;;;;;;2071670;28;20047;-94
2023/09/01 03:23:43;;;;;;;5.28;4.65;;;;;;;;;;2084337;28;20082;-91
2023/09/01 03:24:44;;;;;;;6.63;5.30;;;;;;;;;;2082845;28;20050;-94
2023/09/01 03:25:52;;;;;;;8.75;5.55;;;;;;;;;;2067775;28;20065;-94
2023/09/01 03:26:52;;;;;;;7.70;5.60;;;;;;;;;;1716299;28;10385100;-95
2023/09/01 03:27:53;;;;;;;7.65;6.10;;;;;;;;;;2074032;28;20053;-93
2023/09/01 03:28:53;;;;;;;8.02;4.65;;;;;;;;;;2065821;28;20065;-95
2023/09/01 03:29:55;;;;;;;9.38;5.53;;;;;;;;;;2065613;28;20479;-93
2023/09/01 03:30:55;;;;;;;6.38;5.10;;;;;;;;;;2065828;28;20158;-94
2023/09/01 03:31:56;;;;;;;6.55;4.55;;;;;;;;;;2082117;28;20092;-95
2023/09/01 03:32:56;;;;;;;6.20;4.85;;;;;;;;;;2090205;28;20045;-95
2023/09/01 03:33:57;;;;;;;7.38;4.88;;;;;;;;;;2073606;28;20569;-94
2023/09/01 03:34:57;;;;;;;7.50;5.40;;;;;;;;;;2065713;28;20050;-94
2023/09/01 03:36:01;;;;;;;5.32;4.60;;;;;;;;;;2065523;28;20046;-93
2023/09/01 03:37:01;;;;;;;7.55;4.70;;;;;;;;;;2065476;28;20579;-93
2023/09/01 03:38:02;;;;;;;6.40;5.07;;;;;;;;;;2073712;28;20034;-93
2023/09/01 03:39:07;;;;;;;7.05;5.50;;;;;;;;;;2073557;28;20080;-93
2023/09/01 03:40:09;;;;;;;7.47;4.72;;;;;;;;;;2074516;28;20042;-93
2023/09/01 03:41:09;;;;;;;8.38;5.30;;;;;;;;;;2073099;28;20033;-93
2023/09/01 03:42:10;;;;;;;6.30;5.28;;;;;;;;;;2065433;28;20487;-93
2023/09/01 03:43:10;;;;;;;6.50;5.28;;;;;;;;;;2065273;28;20533;-93
2023/09/01 03:44:11;;;;;;;8.30;5.32;;;;;;;;;;2065368;28;20042;-92
2023/09/01 03:45:11;;;;;;;6.63;5.65;;;;;;;;;;2081712;28;20041;-93
2023/09/01 03:46:11;;;;;;;9.00;5.03;;;;;;;;;;2081543;28;20033;-94
2023/09/01 03:47:12;;;;;;;5.80;4.70;;;;;;;;;;2065153;28;20145;-95
2023/09/01 03:48:13;;;;;;;10.20;5.47;;;;;;;;;;2065300;28;20128;-94
2023/09/01 03:49:13;;;;;;;5.85;4.80;;;;;;;;;;2065280;28;20038;-93
2023/09/01 03:50:13;;;;;;;7.53;5.18;;;;;;;;;;2065166;28;20583;-93
2023/09/01 03:51:15;;;;;;;6.95;5.43;;;;;;;;;;2073452;28;20033;-94
2023/09/01 03:52:16;;;;;;;10.48;5.13;;;;;;;;;;2081509;28;20155;-94
2023/09/01 03:53:16;;;;;;;7.13;5.75;;;;;;;;;;2082525;28;20157;-93
2023/09/01 03:54:17;;;;;;;6.25;4.75;;;;;;;;;;2090317;28;20128;-94
2023/09/01 03:55:17;;;;;;;8.23;4.97;;;;;;;;;;2073761;28;20061;-94
2023/09/01 03:56:19;;;;;;;8.05;5.45;;;;;;;;;;2065323;28;20561;-94
2023/09/01 03:57:19;;;;;;;8.32;5.30;;;;;;;;;;2056236;28;20050;-93
2023/09/01 03:58:20;;;;;;;8.40;5.20;;;;;;;;;;2061721;28;20049;-92
2023/09/01 03:59:20;;;;;;;6.88;5.22;;;;;;;;;;2051016;28;20516;-93
2023/09/01 04:00:22;;;;;;;8.20;5.00;;;;;;;;;;2057292;28;20035;-92
2023/09/01 04:01:22;;;;;;;8.48;4.57;;;;;;;;;;2065323;28;20026;-93
2023/09/01 04:02:22;;;;;;;6.53;5.22;;;;;;;;;;2065399;28;20061;-92
2023/09/01 04:03:23;;;;;;;6.28;5.35;;;;;;;;;;2057412;28;20027;-93
2023/09/01 04:04:23;;;;;;;7.88;5.47;;;;;;;;;;2057539;28;20110;-93
2023/09/01 04:05:24;;;;;;;7.90;5.38;;;;;;;;;;2065911;28;20044;-93
2023/09/01 04:06:24;;;;;;;6.28;4.65;;;;;;;;;;2073415;28;20128;-93
2023/09/01 04:07:24;;;;;;;7.55;4.40;;;;;;;;;;2064788;28;20041;-95
2023/09/01 04:08:25;;;;;;;6.45;5.07;;;;;;;;;;2049483;28;20504;-94
2023/09/01 04:09:25;;;;;;;5.75;4.93;;;;;;;;;;2057299;28;20141;-95
2023/09/01 04:10:25;;;;;;;7.80;5.10;;;;;;;;;;2057378;28;20034;-94
2023/09/01 04:11:26;;;;;;;9.32;5.32;;;;;;;;;;2073238;28;20038;-92
2023/09/01 04:12:26;;;;;;;7.47;4.70;;;;;;;;;;2069059;28;20036;-91
2023/09/01 04:13:27;;;;;;;6.38;4.70;;;;;;;;;;2058763;28;20063;-93
2023/09/01 04:14:27;;;;;;;6.72;4.68;;;;;;;;;;2066612;28;20050;-94
2023/09/01 04:15:28;;;;;;;8.23;5.35;;;;;;;;;;2065441;28;20193;-95
2023/09/01 04:16:28;;;;;;;5.97;5.20;;;;;;;;;;2057255;28;20045;-95
2023/09/01 04:17:29;;;;;;;8.10;5.88;;;;;;;;;;2073163;28;20423;-95
2023/09/01 04:18:32;;;;;;;7.95;5.53;;;;;;;;;;2065213;28;20041;-94
2023/09/01 04:19:32;;;;;;;7.13;5.22;;;;;;;;;;2065485;28;20038;-95
2023/09/01 04:20:32;;;;;;;8.23;5.95;;;;;;;;;;2073449;28;20563;-95
2023/09/01 04:21:33;;;;;;;6.47;5.40;;;;;;;;;;2073211;28;20081;-94
2023/09/01 04:22:33;;;;;;;5.82;4.18;;;;;;;;;;2065160;28;20121;-93
2023/09/01 04:23:34;;;;;;;6.75;5.03;;;;;;;;;;2057345;28;20118;-93
2023/09/01 04:24:34;;;;;;;6.90;4.75;;;;;;;;;;2057151;28;20496;-94
2023/09/01 04:25:34;;;;;;;7.90;5.05;;;;;;;;;;2057033;28;20038;-93
2023/09/01 04:26:35;;;;;;;6.43;5.00;;;;;;;;;;2059007;28;20502;-93
2023/09/01 04:27:35;;;;;;;8.95;5.07;;;;;;;;;;2073335;28;20049;-94
2023/09/01 04:28:36;;;;;;;7.70;4.72;;;;;;;;;;2065308;28;20125;-92
2023/09/01 04:29:38;;;;;;;6.65;5.18;;;;;;;;;;2049191;28;20448;-95
2023/09/01 04:30:39;;;;;;;5.30;4.47;;;;;;;;;;2057079;28;20125;-95
2023/09/01 04:31:39;;;;;;;7.30;5.40;;;;;;;;;;2057349;28;20069;-95
2023/09/01 04:32:44;;;;;;;8.07;5.97;;;;;;;;;;2065844;28;20100;-95
2023/09/01 04:33:44;;;;;;;9.32;5.00;;;;;;;;;;2073184;28;20034;-94
2023/09/01 04:34:44;;;;;;;5.97;5.00;;;;;;;;;;2065030;28;20070;-95
2023/09/01 04:35:54;;;;;;;6.97;4.63;;;;;;;;;;2064777;28;20580;-94
2023/09/01 04:36:54;;;;;;;5.88;4.80;;;;;;;;;;2063963;28;20133;-93
2023/09/01 04:39:04;;;;;;;9.05;4.90;;;;;;;;;;2078542;28;20109;-94
2023/09/01 04:40:06;;;;;;;7.38;5.32;;;;;;;;;;2097946;23;20054;-92
2023/09/01 04:41:07;;;;;;;4.97;4.05;;;;;;;;;;2074205;28;20112;-93
2023/09/01 04:42:07;;;;;;;6.40;4.43;;;;;;;;;;2065272;28;20085;-93
2023/09/01 04:43:08;;;;;;;5.45;4.50;;;;;;;;;;2073158;28;20041;-92
2023/09/01 04:44:08;;;;;;;9.15;4.03;;;;;;;;;;2072982;28;20025;-94
2023/09/01 04:45:09;;;;;;;5.07;4.57;;;;;;;;;;2072929;28;20506;-93
2023/09/01 04:46:09;;;;;;;6.55;4.60;;;;;;;;;;2073041;28;20515;-93
2023/09/01 04:47:10;;;;;;;6.18;4.50;;;;;;;;;;2073953;28;20034;-92
2023/09/01 04:48:10;;;;;;;6.10;5.10;;;;;;;;;;2064912;28;20417;-94
2023/09/01 04:49:10;;;;;;;8.70;5.55;;;;;;;;;;2064918;28;20034;-93
2023/09/01 04:50:11;;;;;;;6.25;4.70;;;;;;;;;;2065015;28;20042;-93
2023/09/01 04:51:11;;;;;;;8.15;4.43;;;;;;;;;;2072991;28;20057;-93
2023/09/01 04:52:12;;;;;;;5.45;3.97;;;;;;;;;;2072943;28;20041;-93
2023/09/01 04:53:12;;;;;;;6.43;4.45;;;;;;;;;;2064901;28;20035;-93
2023/09/01 04:54:12;;;;;;;4.63;3.90;;;;;;;;;;2072897;28;20068;-94
2023/09/01 04:55:13;;;;;;;6.28;3.92;;;;;;;;;;2073020;28;20435;-94
2023/09/01 04:56:13;;;;;;;5.80;4.00;;;;;;;;;;2072942;28;20025;-94
2023/09/01 04:57:14;;;;;;;4.57;3.85;;;;;;;;;;2065648;28;20045;-93
2023/09/01 04:58:14;;;;;;;7.65;4.28;;;;;;;;;;2074790;28;20095;-93
2023/09/01 04:59:15;;;;;;;6.88;4.30;;;;;;;;;;2082046;28;20022;-94
2023/09/01 05:00:16;;;;;;;7.10;3.78;;;;;;;;;;2075774;28;20025;-93
2023/09/01 05:01:16;;;;;;;5.65;4.47;;;;;;;;;;2074406;28;20057;-93
2023/09/01 05:02:17;;;;;;;7.50;4.32;;;;;;;;;;2073130;28;20037;-94
2023/09/01 05:03:17;;;;;;;6.82;4.10;;;;;;;;;;2072856;28;20038;-93
2023/09/01 05:04:18;;;;;;;8.13;4.13;;;;;;;;;;2072885;28;20085;-95
2023/09/01 05:05:18;;;;;;;7.63;4.22;;;;;;;;;;2072882;28;20113;-93
2023/09/01 05:06:18;;;;;;;6.32;4.10;;;;;;;;;;2072927;28;20034;-95
2023/09/01 05:07:19;;;;;;;5.68;4.28;;;;;;;;;;2064809;28;20073;-95
2023/09/01 05:08:19;;;;;;;8.75;3.83;;;;;;;;;;2072866;28;20123;-94
2023/09/01 05:09:20;;;;;;;8.98;3.72;;;;;;;;;;2072886;28;20379;-96
2023/09/01 05:10:20;;;;;;;7.07;3.92;;;;;;;;;;2072862;28;20038;-96
2023/09/01 05:11:20;;;;;;;6.57;3.92;;;;;;;;;;2064803;28;20038;-95
2023/09/01 05:12:21;;;;;;;8.30;3.90;;;;;;;;;;1720520;28;10002434;-95
2023/09/01 05:13:21;;;;;;;7.88;3.88;;;;;;;;;;2067480;28;20042;-95
2023/09/01 05:14:24;;;;;;;5.85;3.65;;;;;;;;;;2064922;28;20041;-95
2023/09/01 05:15:25;;;;;;;6.13;3.83;;;;;;;;;;2081735;28;20466;-95
2023/09/01 05:16:25;;;;;;;5.97;3.65;;;;;;;;;;2081124;28;20099;-95
2023/09/01 05:17:26;;;;;;;7.55;4.13;;;;;;;;;;2073988;28;20038;-95
2023/09/01 05:18:28;;;;;;;6.85;4.03;;;;;;;;;;2082655;28;20033;-94
2023/09/01 05:19:28;;;;;;;5.38;3.75;;;;;;;;;;2076404;28;20069;-95
2023/09/01 05:20:28;;;;;;;6.40;4.03;;;;;;;;;;2081607;28;20065;-93
2023/09/01 05:21:29;;;;;;;6.82;3.63;;;;;;;;;;2068665;28;20165;-94
2023/09/01 05:22:29;;;;;;;5.63;3.47;;;;;;;;;;1708012;28;10374567;-94
2023/09/01 05:23:32;;;;;;;7.07;3.53;;;;;;;;;;2065343;28;20582;-96
2023/09/01 05:24:32;;;;;;;5.60;3.42;;;;;;;;;;2065696;28;20455;-94
2023/09/01 05:25:32;;;;;;;7.70;4.18;;;;;;;;;;2065787;28;20041;-96
2023/09/01 05:26:34;;;;;;;7.60;4.18;;;;;;;;;;2073988;28;20128;-92
2023/09/01 05:27:36;;;;;;;7.85;4.30;;;;;;;;;;2073623;28;20183;-92
2023/09/01 05:28:37;;;;;;;7.82;3.97;;;;;;;;;;2072584;28;20041;-93
2023/09/01 05:29:37;;;;;;;10.02;4.35;;;;;;;;;;2072810;28;20037;-92
2023/09/01 05:30:37;;;;;;;6.55;3.90;;;;;;;;;;2073736;28;20038;-95
2023/09/01 05:31:38;;;;;;;5.63;3.65;;;;;;;;;;2078755;28;20376;-92
2023/09/01 05:32:39;;;;;;;6.10;3.53;;;;;;;;;;2073743;28;20063;-93
2023/09/01 05:33:39;;;;;;;7.25;4.47;;;;;;;;;;2074251;28;20448;-93
2023/09/01 05:34:40;;;;;;;8.50;4.80;;;;;;;;;;2073449;28;20042;-93
2023/09/01 05:35:40;;;;;;;6.47;3.92;;;;;;;;;;1891995;28;5001793;-93
2023/09/01 05:36:40;;;;;;;5.78;3.45;;;;;;;;;;2065743;28;20092;-94
2023/09/01 05:37:45;;;;;;;6.38;3.50;;;;;;;;;;2065242;28;20173;-95
2023/09/01 05:38:45;;;;;;;7.45;4.32;;;;;;;;;;2065446;28;20132;-94
2023/09/01 05:39:46;;;;;;;9.77;4.00;;;;;;;;;;2073990;28;20038;-94
2023/09/01 05:40:55;;;;;;;5.63;3.67;;;;;;;;;;2091312;28;20068;-93
2023/09/01 05:42:00;;;;;;;6.87;4.10;;;;;;;;;;2082621;28;20531;-95
2023/09/01 05:43:00;;;;;;;5.20;3.00;;;;;;;;;;2081905;28;20346;-93
2023/09/01 05:44:01;;;;;;;6.78;3.38;;;;;;;;;;2081387;28;20466;-92
2023/09/01 05:45:01;;;;;;;5.13;3.60;;;;;;;;;;2081657;28;20042;-93
2023/09/01 05:46:02;;;;;;;6.47;4.32;;;;;;;;;;2097097;28;20048;-93
2023/09/01 05:47:06;;;;;;;4.50;2.83;;;;;;;;;;2091096;28;20044;-93
2023/09/01 05:48:06;;;;;;;5.13;3.38;;;;;;;;;;2075342;28;20069;-95
2023/09/01 05:49:07;;;;;;;6.30;3.30;;;;;;;;;;2072372;28;20045;-95
2023/09/01 05:50:07;;;;;;;4.68;3.17;;;;;;;;;;2080976;28;20490;-94
2023/09/01 05:51:13;;;;;;;5.32;2.95;;;;;;;;;;2081559;28;20049;-94
2023/09/01 05:52:14;;;;;;;6.05;2.75;;;;;;;;;;2080838;28;20029;-95
2023/09/01 05:53:14;;;;;;;4.75;3.08;;;;;;;;;;2080863;28;20168;-93
2023/09/01 05:54:16;;;;;;;6.18;3.22;;;;;;;;;;2081543;28;20033;-93
2023/09/01 05:55:16;;;;;;;5.22;3.20;;;;;;;;;;2073251;28;20534;-93
2023/09/01 05:56:17;;;;;;;6.13;3.25;;;;;;;;;;2073571;28;20038;-95
2023/09/01 05:57:17;;;;;;;5.25;3.22;;;;;;;;;;2072824;28;20036;-91
2023/09/01 05:58:18;;;;;;;4.60;3.30;;;;;;;;;;2080529;28;20107;-93
2023/09/01 05:59:18;;;;;;;5.97;3.50;;;;;;;;;;2081199;28;20064;-94
2023/09/01 06:00:19;;;;;;;5.32;3.30;;;;;;;;;;2077536;28;20149;-94
2023/09/01 06:01:20;;;;;;;5.10;2.90;;;;;;;;;;2077341;28;20054;-95
2023/09/01 06:02:20;;;;;;;6.13;3.13;;;;;;;;;;2070618;28;20033;-93
2023/09/01 06:03:20;;;;;;;5.25;3.05;;;;;;;;;;2080843;28;20033;-95
2023/09/01 06:04:21;;;;;;;7.15;3.55;;;;;;;;;;2080823;28;20061;-94
2023/09/01 06:05:21;;;;;;;8.93;2.97;;;;;;;;;;2072575;28;20038;-95
2023/09/01 06:06:22;;;;;;;6.50;2.90;;;;;;;;;;2072563;28;20064;-93
2023/09/01 06:07:22;;;;;;;5.43;3.20;;;;;;;;;;2081134;28;20656;-94
2023/09/01 06:08:22;;;;;;;2.80;2.35;;;;;;;;;;2080630;28;20041;-95
2023/09/01 06:09:26;;;;;;;4.82;3.03;;;;;;;;;;2080744;28;20038;-94
2023/09/01 06:10:26;;;;;;;4.40;2.90;;;;;;;;;;2080854;28;20070;-93